createdAt,value
2018-12-14T00:02:46.904Z,2.29
2018-12-14T00:08:03.978Z,2.34
2018-12-14T00:13:16.092Z,2.30
2018-12-14T00:18:27.360Z,2.24
2018-12-14T00:23:41.936Z,2.30
2018-12-14T00:28:52.975Z,2.28
2018-12-14T00:34:05.743Z,2.34
2018-12-14T00:39:16.817Z,2.31
2018-12-14T00:44:29.021Z,2.33
2018-12-14T00:49:40.225Z,2.32
2018-12-14T00:54:54.149Z,2.25
2018-12-14T01:00:08.634Z,2.33
2018-12-14T01:05:20.800Z,2.37
2018-12-14T01:10:31.748Z,2.32
2018-12-14T01:15:43.888Z,2.30
2018-12-14T01:20:55.893Z,2.39
2018-12-14T01:26:07.375Z,2.35
2018-12-14T01:31:19.448Z,2.37
2018-12-14T01:36:30.509Z,2.36
2018-12-14T01:41:42.626Z,2.36
2018-12-14T01:46:54.222Z,2.38
2018-12-14T01:52:06.133Z,2.37
2018-12-14T01:57:19.154Z,2.44
2018-12-14T02:02:35.251Z,2.37
2018-12-14T02:07:47.669Z,2.29
2018-12-14T02:12:59.808Z,2.35
2018-12-14T02:18:11.064Z,2.35
2018-12-14T02:23:23.052Z,2.40
2018-12-14T02:28:34.104Z,2.35
2018-12-14T02:33:46.495Z,2.36
2018-12-14T02:38:57.560Z,2.35
2018-12-14T02:44:06.260Z,2.28
2018-12-14T02:49:17.313Z,2.22
2018-12-14T02:54:29.652Z,2.27
2018-12-14T02:59:40.678Z,2.31
2018-12-14T03:04:55.256Z,2.26
2018-12-14T03:10:02.833Z,2.30
2018-12-14T03:15:14.853Z,2.32
2018-12-14T03:20:25.865Z,2.33
2018-12-14T03:25:38.298Z,2.31
2018-12-14T03:30:50.514Z,2.31
2018-12-14T03:36:01.603Z,2.33
2018-12-14T03:41:13.719Z,2.32
2018-12-14T03:46:24.766Z,2.35
2018-12-14T03:51:36.881Z,2.31
2018-12-14T03:56:48.027Z,2.36
2018-12-14T04:02:00.561Z,2.37
2018-12-14T04:07:11.470Z,2.33
2018-12-14T04:12:23.412Z,2.35
2018-12-14T04:17:36.643Z,2.38
2018-12-14T04:22:49.185Z,2.38
2018-12-14T04:28:00.249Z,2.37
2018-12-14T04:33:12.415Z,2.40
2018-12-14T04:38:23.565Z,2.41
2018-12-14T04:43:32.070Z,2.44
2018-12-14T04:48:43.032Z,2.48
2018-12-14T04:51:12.353Z,2.56
2018-12-14T04:56:23.379Z,2.51
2018-12-14T05:01:35.660Z,2.53
2018-12-14T05:06:47.185Z,2.48
2018-12-14T05:11:59.204Z,2.50
2018-12-14T05:17:10.223Z,2.52
2018-12-14T05:22:22.576Z,2.58
2018-12-14T05:27:33.672Z,2.67
2018-12-14T05:32:45.930Z,2.71
2018-12-14T05:37:56.979Z,2.61
2018-12-14T05:43:08.967Z,2.54
2018-12-14T05:48:19.964Z,2.59
2018-12-14T05:53:31.998Z,2.51
2018-12-14T05:58:42.952Z,2.50
2018-12-14T06:03:55.410Z,2.53
2018-12-14T06:09:08.039Z,2.50
2018-12-14T06:14:20.084Z,2.54
2018-12-14T06:19:31.164Z,2.45
2018-12-14T06:24:43.664Z,2.51
2018-12-14T06:29:57.084Z,2.54
2018-12-14T06:35:09.794Z,2.48
2018-12-14T06:40:20.847Z,2.48
2018-12-14T06:45:32.972Z,2.57
2018-12-14T06:50:48.210Z,2.54
2018-12-14T06:56:01.123Z,2.54
2018-12-14T07:01:13.303Z,2.66
2018-12-14T07:06:24.288Z,2.61
2018-12-14T07:11:40.045Z,2.52
2018-12-14T07:16:51.128Z,2.50
2018-12-14T07:22:03.302Z,2.56
2018-12-14T07:27:15.775Z,2.60
2018-12-14T07:32:28.108Z,2.58
2018-12-14T07:37:36.001Z,2.56
2018-12-14T07:42:49.905Z,2.56
2018-12-14T07:48:04.303Z,2.62
2018-12-14T07:53:16.944Z,2.56
2018-12-14T07:58:24.502Z,2.65
2018-12-14T08:03:38.497Z,2.61
2018-12-14T08:08:49.553Z,2.60
2018-12-14T08:14:01.549Z,2.59
2018-12-14T08:19:14.471Z,2.64
2018-12-14T08:24:26.644Z,2.64
2018-12-14T08:29:37.707Z,2.65
2018-12-14T08:34:51.095Z,2.70
2018-12-14T08:42:44.148Z,2.71
2018-12-14T08:47:55.993Z,2.74
2018-12-14T08:50:25.770Z,2.69
2018-12-14T08:55:37.805Z,2.68
2018-12-14T09:00:49.357Z,2.75
2018-12-14T09:06:01.446Z,2.75
2018-12-14T09:11:13.591Z,2.80
2018-12-14T09:16:24.683Z,2.80
2018-12-14T09:21:37.416Z,2.79
2018-12-14T09:26:49.705Z,2.89
2018-12-14T09:31:58.633Z,2.94
2018-12-14T09:37:11.147Z,2.92
2018-12-14T09:42:23.179Z,2.96
2018-12-14T09:47:36.245Z,3.04
2018-12-14T09:50:06.029Z,2.95
2018-12-14T09:55:18.195Z,3.00
2018-12-14T10:00:29.288Z,3.04
2018-12-14T10:05:41.222Z,3.06
2018-12-14T10:10:53.908Z,3.12
2018-12-14T10:16:06.681Z,3.24
2018-12-14T10:18:36.265Z,3.26
2018-12-14T10:21:06.002Z,3.33
2018-12-14T10:26:17.089Z,3.27
2018-12-14T10:31:29.273Z,3.29
2018-12-14T10:36:41.573Z,3.32
2018-12-14T10:41:54.133Z,3.31
2018-12-14T10:47:05.320Z,3.36
2018-12-14T10:52:17.557Z,3.39
2018-12-14T10:57:28.749Z,3.36
2018-12-14T11:02:50.829Z,3.41
2018-12-14T11:07:58.352Z,3.46
2018-12-14T11:13:10.560Z,3.44
2018-12-14T11:18:23.780Z,3.38
2018-12-14T11:20:53.128Z,3.45
2018-12-14T11:26:06.249Z,3.43
2018-12-14T11:28:35.709Z,3.44
2018-12-14T11:31:05.254Z,3.49
2018-12-14T11:36:18.425Z,3.65
2018-12-14T11:41:30.581Z,3.65
2018-12-14T11:46:45.172Z,3.63
2018-12-14T11:51:57.241Z,3.68
2018-12-14T11:57:08.205Z,3.60
2018-12-14T11:59:37.543Z,3.68
2018-12-14T12:04:49.824Z,3.48
2018-12-14T12:09:57.378Z,3.57
2018-12-14T12:12:26.897Z,3.48
2018-12-14T12:17:39.348Z,3.46
2018-12-14T12:22:52.657Z,3.45
2018-12-14T12:28:01.412Z,3.43
2018-12-14T12:33:13.790Z,3.40
2018-12-14T12:38:25.625Z,3.43
2018-12-14T12:43:40.132Z,3.45
2018-12-14T12:48:53.341Z,3.42
2018-12-14T12:54:06.393Z,3.44
2018-12-14T12:59:17.753Z,3.46
2018-12-14T13:01:47.231Z,3.49
2018-12-14T13:07:02.304Z,3.45
2018-12-14T13:12:14.758Z,3.42
2018-12-14T13:17:25.954Z,3.53
2018-12-14T13:22:34.644Z,3.60
2018-12-14T13:27:46.216Z,3.64
2018-12-14T13:32:58.974Z,3.72
2018-12-14T13:38:12.292Z,3.73
2018-12-14T13:43:24.910Z,3.68
2018-12-14T13:48:36.509Z,3.75
2018-12-14T13:53:49.018Z,3.76
2018-12-14T13:59:01.505Z,3.74
2018-12-14T14:04:16.620Z,3.70
2018-12-14T14:09:28.256Z,3.56
2018-12-14T14:14:40.772Z,3.60
2018-12-14T14:19:52.582Z,3.51
2018-12-14T14:25:05.576Z,3.59
2018-12-14T14:30:17.328Z,3.61
2018-12-14T14:35:29.577Z,3.52
2018-12-14T14:40:40.670Z,3.43
2018-12-14T14:45:52.966Z,3.51
2018-12-14T14:51:06.036Z,3.39
2018-12-14T14:56:17.259Z,3.40
2018-12-14T15:01:29.929Z,3.33
2018-12-14T15:06:45.283Z,3.35
2018-12-14T15:09:14.764Z,3.26
2018-12-14T15:11:44.434Z,3.26
2018-12-14T15:16:56.121Z,3.23
2018-12-14T15:19:25.717Z,3.19
2018-12-14T15:24:38.204Z,3.21
2018-12-14T15:29:46.868Z,3.18
2018-12-14T15:34:56.086Z,3.20
2018-12-14T15:40:10.974Z,3.15
2018-12-14T15:45:26.412Z,3.12
2018-12-14T15:50:37.656Z,3.15
2018-12-14T15:55:50.109Z,3.12
2018-12-14T16:01:02.519Z,3.08
2018-12-14T16:06:13.839Z,3.13
2018-12-14T16:11:23.036Z,3.01
2018-12-14T16:16:34.674Z,2.97
2018-12-14T16:21:47.079Z,2.99
2018-12-14T16:26:59.019Z,3.03
2018-12-14T16:32:11.218Z,3.05
2018-12-14T16:37:24.567Z,3.00
2018-12-14T16:42:36.533Z,2.95
2018-12-14T16:47:48.492Z,3.02
2018-12-14T16:53:00.413Z,3.01
2018-12-14T16:58:11.375Z,3.01
2018-12-14T17:03:23.560Z,2.98
2018-12-14T17:08:37.559Z,3.01
2018-12-14T17:11:06.902Z,3.00
2018-12-14T17:16:20.077Z,2.98
2018-12-14T17:21:32.237Z,2.97
2018-12-14T17:26:43.526Z,2.97
2018-12-14T17:31:55.526Z,2.98
2018-12-14T17:37:07.627Z,2.93
2018-12-14T17:42:19.770Z,2.92
2018-12-14T17:47:32.452Z,2.87
2018-12-14T17:50:01.921Z,2.90
2018-12-14T17:55:14.196Z,2.92
2018-12-14T18:00:25.379Z,2.89
2018-12-14T18:05:37.457Z,2.94
2018-12-14T18:10:48.670Z,2.87
2018-12-14T18:16:00.634Z,2.87
2018-12-14T18:21:12.762Z,2.87
2018-12-14T18:26:23.661Z,2.87
2018-12-14T18:31:38.866Z,2.94
2018-12-14T18:36:49.944Z,2.88
2018-12-14T18:42:04.527Z,2.92
2018-12-14T18:47:15.535Z,2.86
2018-12-14T18:52:28.256Z,2.90
2018-12-14T18:57:39.897Z,2.99
2018-12-14T19:02:56.424Z,2.99
2018-12-14T19:08:10.580Z,3.03
2018-12-14T19:13:26.287Z,2.95
2018-12-14T19:18:38.311Z,2.96
2018-12-14T19:21:08.137Z,3.00
2018-12-14T19:26:16.365Z,2.94
2018-12-14T19:31:30.686Z,3.02
2018-12-14T19:36:41.968Z,3.08
2018-12-14T19:39:11.775Z,3.01
2018-12-14T19:41:41.435Z,3.07
2018-12-14T19:46:53.744Z,2.95
2018-12-14T19:52:08.537Z,2.84
2018-12-14T19:57:20.719Z,2.86
2018-12-14T20:02:35.172Z,2.83
2018-12-14T20:07:46.980Z,2.82
2018-12-14T20:10:16.540Z,2.79
2018-12-14T20:15:30.371Z,2.72
2018-12-14T20:20:48.450Z,2.71
2018-12-14T20:26:00.670Z,2.66
2018-12-14T20:31:15.059Z,2.72
2018-12-14T20:36:27.584Z,2.69
2018-12-14T20:41:39.889Z,2.63
2018-12-14T20:46:52.338Z,2.58
2018-12-14T20:52:07.030Z,2.53
2018-12-14T20:57:19.253Z,2.54
2018-12-14T21:02:31.538Z,2.57
2018-12-14T21:07:42.682Z,2.55
2018-12-14T21:12:52.032Z,2.52
2018-12-14T21:18:04.610Z,2.54
2018-12-14T21:23:17.752Z,2.54
2018-12-14T21:28:29.257Z,2.39
2018-12-14T21:33:44.230Z,2.41
2018-12-14T21:38:56.713Z,2.32
2018-12-14T21:44:15.276Z,2.30
2018-12-14T21:49:28.822Z,2.27
2018-12-14T21:54:41.191Z,2.33
2018-12-14T21:59:52.309Z,2.29
2018-12-14T22:05:06.304Z,2.33
2018-12-14T22:10:17.445Z,2.19
2018-12-14T22:15:29.544Z,2.25
2018-12-14T22:20:43.536Z,2.25
2018-12-14T22:25:55.732Z,2.23
2018-12-14T22:31:07.978Z,2.23
2018-12-14T22:36:19.008Z,2.20
2018-12-14T22:41:31.341Z,2.28
2018-12-14T22:46:45.684Z,2.23
2018-12-14T22:51:57.691Z,2.19
2018-12-14T22:57:10.928Z,2.20
2018-12-14T23:02:20.065Z,2.18
2018-12-14T23:07:31.140Z,2.24
2018-12-14T23:12:43.248Z,2.12
2018-12-14T23:17:54.191Z,2.19
2018-12-14T23:23:06.241Z,2.11
2018-12-14T23:28:19.523Z,2.19
2018-12-14T23:33:28.015Z,2.17
2018-12-14T23:38:36.036Z,2.16
2018-12-14T23:43:48.229Z,2.06
2018-12-14T23:48:59.276Z,2.08
2018-12-14T23:51:28.976Z,2.08
2018-12-14T23:56:40.033Z,2.21
